sensor_id;sensor_type;location;lat;lon;timestamp;temperature;humidity
41547;DHT22;27271;45.412;10.852;2023-07-31T04:33:58;22.00;99.90
41547;DHT22;27271;45.412;10.852;2023-07-31T04:37:20;22.10;99.90
41547;DHT22;27271;45.412;10.852;2023-07-31T04:40:42;22.30;99.90
41547;DHT22;27271;45.412;10.852;2023-07-31T04:44:04;22.50;99.90
41547;DHT22;27271;45.412;10.852;2023-07-31T04:47:27;22.60;99.90
41547;DHT22;27271;45.412;10.852;2023-07-31T04:50:49;22.70;99.90
41547;DHT22;27271;45.412;10.852;2023-07-31T04:54:11;22.90;99.90
41547;DHT22;27271;45.412;10.852;2023-07-31T04:57:37;23.10;99.90
41547;DHT22;27271;45.412;10.852;2023-07-31T05:00:59;23.30;99.90
41547;DHT22;27271;45.412;10.852;2023-07-31T05:04:21;23.40;99.90
41547;DHT22;27271;45.412;10.852;2023-07-31T05:07:43;23.70;99.90
41547;DHT22;27271;45.412;10.852;2023-07-31T05:11:05;23.80;99.90
41547;DHT22;27271;45.412;10.852;2023-07-31T05:14:28;24.00;77.00
41547;DHT22;27271;45.412;10.852;2023-07-31T05:17:51;24.10;98.60
41547;DHT22;27271;45.412;10.852;2023-07-31T05:21:13;24.20;93.80
41547;DHT22;27271;45.412;10.852;2023-07-31T05:24:35;24.30;55.00
41547;DHT22;27271;45.412;10.852;2023-07-31T05:27:57;24.50;47.20
41547;DHT22;27271;45.412;10.852;2023-07-31T05:31:19;25.00;1.00
41547;DHT22;27271;45.412;10.852;2023-07-31T05:34:42;25.70;1.00
41547;DHT22;27271;45.412;10.852;2023-07-31T05:38:04;26.70;1.00
41547;DHT22;27271;45.412;10.852;2023-07-31T05:41:26;28.10;1.00
41547;DHT22;27271;45.412;10.852;2023-07-31T05:44:48;29.10;1.00
41547;DHT22;27271;45.412;10.852;2023-07-31T05:48:10;29.80;1.00
41547;DHT22;27271;45.412;10.852;2023-07-31T05:51:32;29.70;1.00
41547;DHT22;27271;45.412;10.852;2023-07-31T05:54:55;29.60;1.00
41547;DHT22;27271;45.412;10.852;2023-07-31T05:58:17;29.90;1.00
41547;DHT22;27271;45.412;10.852;2023-07-31T06:01:39;30.30;1.00
41547;DHT22;27271;45.412;10.852;2023-07-31T06:05:04;30.70;1.00
41547;DHT22;27271;45.412;10.852;2023-07-31T06:08:28;31.30;1.00
41547;DHT22;27271;45.412;10.852;2023-07-31T06:11:50;31.80;1.00
41547;DHT22;27271;45.412;10.852;2023-07-31T06:15:12;32.10;1.00
41547;DHT22;27271;45.412;10.852;2023-07-31T06:18:34;32.40;1.00
41547;DHT22;27271;45.412;10.852;2023-07-31T06:21:57;32.20;1.00
41547;DHT22;27271;45.412;10.852;2023-07-31T06:25:19;31.90;1.00
41547;DHT22;27271;45.412;10.852;2023-07-31T06:28:41;32.20;1.00
41547;DHT22;27271;45.412;10.852;2023-07-31T06:32:04;32.00;1.00
41547;DHT22;27271;45.412;10.852;2023-07-31T06:35:26;31.90;1.00
41547;DHT22;27271;45.412;10.852;2023-07-31T06:38:48;31.20;1.00
41547;DHT22;27271;45.412;10.852;2023-07-31T06:42:10;30.60;1.00
41547;DHT22;27271;45.412;10.852;2023-07-31T06:45:32;30.80;1.00
41547;DHT22;27271;45.412;10.852;2023-07-31T06:48:55;30.40;1.00
41547;DHT22;27271;45.412;10.852;2023-07-31T06:52:17;29.90;1.00
41547;DHT22;27271;45.412;10.852;2023-07-31T06:55:39;29.50;1.00
41547;DHT22;27271;45.412;10.852;2023-07-31T06:59:01;29.30;1.00
41547;DHT22;27271;45.412;10.852;2023-07-31T07:02:23;29.10;1.00
41547;DHT22;27271;45.412;10.852;2023-07-31T07:05:46;29.20;1.00
41547;DHT22;27271;45.412;10.852;2023-07-31T07:09:08;29.80;1.00
41547;DHT22;27271;45.412;10.852;2023-07-31T07:12:31;30.90;1.00
41547;DHT22;27271;45.412;10.852;2023-07-31T07:15:54;31.80;1.00
41547;DHT22;27271;45.412;10.852;2023-07-31T07:19:16;32.50;1.00
41547;DHT22;27271;45.412;10.852;2023-07-31T07:22:38;32.10;1.00
41547;DHT22;27271;45.412;10.852;2023-07-31T07:26:01;31.70;1.00
41547;DHT22;27271;45.412;10.852;2023-07-31T07:29:23;31.40;1.00
41547;DHT22;27271;45.412;10.852;2023-07-31T07:32:45;31.30;1.00
41547;DHT22;27271;45.412;10.852;2023-07-31T07:36:07;31.00;1.00
41547;DHT22;27271;45.412;10.852;2023-07-31T07:39:31;31.20;1.00
41547;DHT22;27271;45.412;10.852;2023-07-31T07:42:53;31.50;1.00
41547;DHT22;27271;45.412;10.852;2023-07-31T07:46:16;31.80;1.00
41547;DHT22;27271;45.412;10.852;2023-07-31T07:49:38;31.70;1.00
41547;DHT22;27271;45.412;10.852;2023-07-31T07:53:00;31.90;1.00
41547;DHT22;27271;45.412;10.852;2023-07-31T07:56:22;32.40;1.00
41547;DHT22;27271;45.412;10.852;2023-07-31T07:59:47;32.80;1.00
41547;DHT22;27271;45.412;10.852;2023-07-31T08:03:10;32.60;1.00
41547;DHT22;27271;45.412;10.852;2023-07-31T08:06:32;32.10;1.00
41547;DHT22;27271;45.412;10.852;2023-07-31T08:09:54;32.50;1.00
41547;DHT22;27271;45.412;10.852;2023-07-31T08:13:16;33.40;1.00
41547;DHT22;27271;45.412;10.852;2023-07-31T08:16:38;35.20;99.90
41547;DHT22;27271;45.412;10.852;2023-07-31T08:20:01;36.20;99.90
41547;DHT22;27271;45.412;10.852;2023-07-31T08:23:23;37.40;99.90
41547;DHT22;27271;45.412;10.852;2023-07-31T08:26:45;37.60;99.90
41547;DHT22;27271;45.412;10.852;2023-07-31T08:30:07;38.10;99.90
41547;DHT22;27271;45.412;10.852;2023-07-31T08:33:29;38.00;99.90
41547;DHT22;27271;45.412;10.852;2023-07-31T08:36:52;36.40;99.90
41547;DHT22;27271;45.412;10.852;2023-07-31T08:40:14;36.20;99.90
41547;DHT22;27271;45.412;10.852;2023-07-31T08:43:38;36.50;99.90
41547;DHT22;27271;45.412;10.852;2023-07-31T08:47:00;36.40;99.90
41547;DHT22;27271;45.412;10.852;2023-07-31T08:50:23;35.40;99.90
41547;DHT22;27271;45.412;10.852;2023-07-31T08:53:45;35.60;99.90
41547;DHT22;27271;45.412;10.852;2023-07-31T08:57:07;35.30;99.90
41547;DHT22;27271;45.412;10.852;2023-07-31T09:00:33;34.30;99.90
41547;DHT22;27271;45.412;10.852;2023-07-31T09:03:57;33.30;99.90
41547;DHT22;27271;45.412;10.852;2023-07-31T09:07:21;35.20;99.90
41547;DHT22;27271;45.412;10.852;2023-07-31T09:10:44;36.90;99.90
41547;DHT22;27271;45.412;10.852;2023-07-31T09:14:13;37.40;99.90
41547;DHT22;27271;45.412;10.852;2023-07-31T09:17:36;37.00;99.90
41547;DHT22;27271;45.412;10.852;2023-07-31T09:21:05;37.70;99.90
41547;DHT22;27271;45.412;10.852;2023-07-31T09:24:29;37.40;99.90
41547;DHT22;27271;45.412;10.852;2023-07-31T09:27:58;37.40;99.90
41547;DHT22;27271;45.412;10.852;2023-07-31T09:31:39;37.60;99.90
41547;DHT22;27271;45.412;10.852;2023-07-31T09:38:37;37.50;99.90
41547;DHT22;27271;45.412;10.852;2023-07-31T09:41:59;37.00;99.90
41547;DHT22;27271;45.412;10.852;2023-07-31T09:45:22;37.00;99.90
41547;DHT22;27271;45.412;10.852;2023-07-31T09:48:52;36.80;99.90
41547;DHT22;27271;45.412;10.852;2023-07-31T09:52:15;36.70;99.90
41547;DHT22;27271;45.412;10.852;2023-07-31T09:55:37;37.00;99.90
41547;DHT22;27271;45.412;10.852;2023-07-31T09:59:00;36.90;99.90
41547;DHT22;27271;45.412;10.852;2023-07-31T10:02:23;37.10;99.90
41547;DHT22;27271;45.412;10.852;2023-07-31T10:05:50;35.90;99.90
41547;DHT22;27271;45.412;10.852;2023-07-31T10:09:15;36.40;99.90
41547;DHT22;27271;45.412;10.852;2023-07-31T10:12:40;36.50;99.90
41547;DHT22;27271;45.412;10.852;2023-07-31T10:16:03;36.00;99.90
41547;DHT22;27271;45.412;10.852;2023-07-31T10:19:27;35.60;99.90
41547;DHT22;27271;45.412;10.852;2023-07-31T10:22:52;36.00;99.90
41547;DHT22;27271;45.412;10.852;2023-07-31T10:26:17;36.20;99.90
41547;DHT22;27271;45.412;10.852;2023-07-31T10:29:43;35.80;99.90
41547;DHT22;27271;45.412;10.852;2023-07-31T10:33:11;35.80;99.90
41547;DHT22;27271;45.412;10.852;2023-07-31T10:36:34;35.70;99.90
41547;DHT22;27271;45.412;10.852;2023-07-31T10:40:06;35.90;99.90
41547;DHT22;27271;45.412;10.852;2023-07-31T10:43:29;36.00;99.90
41547;DHT22;27271;45.412;10.852;2023-07-31T10:47:07;35.40;99.90
41547;DHT22;27271;45.412;10.852;2023-07-31T10:50:30;35.30;99.90
41547;DHT22;27271;45.412;10.852;2023-07-31T10:54:11;35.60;99.90
41547;DHT22;27271;45.412;10.852;2023-07-31T10:57:35;34.90;99.90
41547;DHT22;27271;45.412;10.852;2023-07-31T11:01:02;34.50;99.90
41547;DHT22;27271;45.412;10.852;2023-07-31T11:04:26;35.00;99.90
41547;DHT22;27271;45.412;10.852;2023-07-31T11:07:49;35.20;99.90
41547;DHT22;27271;45.412;10.852;2023-07-31T11:11:16;34.60;99.90
41547;DHT22;27271;45.412;10.852;2023-07-31T11:14:38;33.80;99.90
41547;DHT22;27271;45.412;10.852;2023-07-31T11:18:01;33.50;99.90
41547;DHT22;27271;45.412;10.852;2023-07-31T11:21:32;33.50;99.90
41547;DHT22;27271;45.412;10.852;2023-07-31T11:24:56;33.90;99.90
41547;DHT22;27271;45.412;10.852;2023-07-31T11:28:19;33.50;99.90
41547;DHT22;27271;45.412;10.852;2023-07-31T11:31:44;33.50;99.90
41547;DHT22;27271;45.412;10.852;2023-07-31T11:35:07;33.50;99.90
41547;DHT22;27271;45.412;10.852;2023-07-31T11:38:34;33.90;99.90
41547;DHT22;27271;45.412;10.852;2023-07-31T11:41:59;33.30;99.90
41547;DHT22;27271;45.412;10.852;2023-07-31T11:45:25;33.20;99.90
41547;DHT22;27271;45.412;10.852;2023-07-31T11:48:50;33.30;99.90
41547;DHT22;27271;45.412;10.852;2023-07-31T11:52:13;33.30;99.90
41547;DHT22;27271;45.412;10.852;2023-07-31T11:55:35;33.30;99.90
41547;DHT22;27271;45.412;10.852;2023-07-31T11:59:08;33.60;99.90
41547;DHT22;27271;45.412;10.852;2023-07-31T12:02:41;33.60;99.90
41547;DHT22;27271;45.412;10.852;2023-07-31T12:06:05;33.70;99.90
41547;DHT22;27271;45.412;10.852;2023-07-31T12:09:27;33.70;99.90
41547;DHT22;27271;45.412;10.852;2023-07-31T12:13:05;33.70;99.90
41547;DHT22;27271;45.412;10.852;2023-07-31T12:16:27;33.40;99.90
41547;DHT22;27271;45.412;10.852;2023-07-31T12:19:50;32.70;99.90
41547;DHT22;27271;45.412;10.852;2023-07-31T12:23:14;32.00;99.90
41547;DHT22;27271;45.412;10.852;2023-07-31T12:26:37;31.70;99.90
41547;DHT22;27271;45.412;10.852;2023-07-31T12:29:59;31.80;99.90
41547;DHT22;27271;45.412;10.852;2023-07-31T12:33:21;31.80;99.90
41547;DHT22;27271;45.412;10.852;2023-07-31T12:36:43;32.10;99.90
41547;DHT22;27271;45.412;10.852;2023-07-31T12:40:06;32.30;99.90
41547;DHT22;27271;45.412;10.852;2023-07-31T12:43:30;32.60;99.90
41547;DHT22;27271;45.412;10.852;2023-07-31T12:46:52;33.00;99.90
41547;DHT22;27271;45.412;10.852;2023-07-31T12:50:14;32.90;99.90
41547;DHT22;27271;45.412;10.852;2023-07-31T12:53:36;32.70;99.90
41547;DHT22;27271;45.412;10.852;2023-07-31T12:56:58;33.00;99.90
41547;DHT22;27271;45.412;10.852;2023-07-31T13:00:21;33.10;99.90
41547;DHT22;27271;45.412;10.852;2023-07-31T13:03:44;33.20;99.90
41547;DHT22;27271;45.412;10.852;2023-07-31T13:07:07;33.30;99.90
41547;DHT22;27271;45.412;10.852;2023-07-31T13:10:30;33.40;99.90
41547;DHT22;27271;45.412;10.852;2023-07-31T13:13:54;33.70;99.90
41547;DHT22;27271;45.412;10.852;2023-07-31T13:17:16;33.50;99.90
41547;DHT22;27271;45.412;10.852;2023-07-31T13:20:38;33.30;99.90
41547;DHT22;27271;45.412;10.852;2023-07-31T13:24:00;33.10;99.90
41547;DHT22;27271;45.412;10.852;2023-07-31T13:27:22;32.90;99.90
41547;DHT22;27271;45.412;10.852;2023-07-31T13:30:46;33.30;99.90
41547;DHT22;27271;45.412;10.852;2023-07-31T13:34:08;33.40;99.90
41547;DHT22;27271;45.412;10.852;2023-07-31T13:37:30;33.40;99.90
41547;DHT22;27271;45.412;10.852;2023-07-31T13:40:52;33.50;99.90
41547;DHT22;27271;45.412;10.852;2023-07-31T13:44:14;33.80;99.90
41547;DHT22;27271;45.412;10.852;2023-07-31T13:47:36;33.80;99.90
41547;DHT22;27271;45.412;10.852;2023-07-31T13:50:59;33.70;99.90
41547;DHT22;27271;45.412;10.852;2023-07-31T13:54:22;34.30;99.90
41547;DHT22;27271;45.412;10.852;2023-07-31T13:57:44;34.70;99.90
41547;DHT22;27271;45.412;10.852;2023-07-31T14:01:07;34.00;99.90
41547;DHT22;27271;45.412;10.852;2023-07-31T14:04:29;33.50;99.90
41547;DHT22;27271;45.412;10.852;2023-07-31T14:07:51;33.40;99.90
41547;DHT22;27271;45.412;10.852;2023-07-31T14:11:13;33.60;99.90
41547;DHT22;27271;45.412;10.852;2023-07-31T14:14:36;33.50;99.90
41547;DHT22;27271;45.412;10.852;2023-07-31T14:17:58;33.30;99.90
41547;DHT22;27271;45.412;10.852;2023-07-31T14:21:23;33.10;99.90
41547;DHT22;27271;45.412;10.852;2023-07-31T14:24:46;33.30;99.90
41547;DHT22;27271;45.412;10.852;2023-07-31T14:28:08;33.30;99.90
41547;DHT22;27271;45.412;10.852;2023-07-31T14:31:30;33.10;99.90
41547;DHT22;27271;45.412;10.852;2023-07-31T14:34:53;33.00;99.90
41547;DHT22;27271;45.412;10.852;2023-07-31T14:38:16;32.60;99.90
41547;DHT22;27271;45.412;10.852;2023-07-31T14:41:38;32.80;99.90
41547;DHT22;27271;45.412;10.852;2023-07-31T14:45:01;33.30;99.90
41547;DHT22;27271;45.412;10.852;2023-07-31T14:48:24;33.20;99.90
41547;DHT22;27271;45.412;10.852;2023-07-31T14:51:46;32.80;99.90
41547;DHT22;27271;45.412;10.852;2023-07-31T14:55:08;32.60;99.90
41547;DHT22;27271;45.412;10.852;2023-07-31T14:58:31;33.00;99.90
41547;DHT22;27271;45.412;10.852;2023-07-31T15:01:54;33.00;99.90
41547;DHT22;27271;45.412;10.852;2023-07-31T15:05:16;33.10;99.90
41547;DHT22;27271;45.412;10.852;2023-07-31T15:08:38;33.00;99.90
41547;DHT22;27271;45.412;10.852;2023-07-31T15:12:01;32.90;99.90
41547;DHT22;27271;45.412;10.852;2023-07-31T15:15:23;33.10;99.90
41547;DHT22;27271;45.412;10.852;2023-07-31T15:18:45;33.30;99.90
41547;DHT22;27271;45.412;10.852;2023-07-31T15:22:08;33.50;99.90
41547;DHT22;27271;45.412;10.852;2023-07-31T15:25:30;33.40;99.90
41547;DHT22;27271;45.412;10.852;2023-07-31T15:29:05;33.30;99.90
41547;DHT22;27271;45.412;10.852;2023-07-31T15:32:31;33.00;99.90
41547;DHT22;27271;45.412;10.852;2023-07-31T15:35:53;32.80;99.90
41547;DHT22;27271;45.412;10.852;2023-07-31T15:39:17;33.00;99.90
41547;DHT22;27271;45.412;10.852;2023-07-31T15:42:39;32.90;99.90
41547;DHT22;27271;45.412;10.852;2023-07-31T15:46:01;33.00;99.90
41547;DHT22;27271;45.412;10.852;2023-07-31T15:49:24;32.30;99.90
41547;DHT22;27271;45.412;10.852;2023-07-31T15:52:46;31.80;99.90
41547;DHT22;27271;45.412;10.852;2023-07-31T15:56:09;31.70;99.90
41547;DHT22;27271;45.412;10.852;2023-07-31T15:59:31;32.00;99.90
41547;DHT22;27271;45.412;10.852;2023-07-31T16:02:53;32.30;99.90
41547;DHT22;27271;45.412;10.852;2023-07-31T16:06:15;32.00;99.90
41547;DHT22;27271;45.412;10.852;2023-07-31T16:09:37;32.30;99.90
41547;DHT22;27271;45.412;10.852;2023-07-31T16:12:59;32.10;99.90
41547;DHT22;27271;45.412;10.852;2023-07-31T16:16:22;31.70;99.90
41547;DHT22;27271;45.412;10.852;2023-07-31T16:19:44;31.70;99.90
41547;DHT22;27271;45.412;10.852;2023-07-31T16:23:06;31.70;99.90
41547;DHT22;27271;45.412;10.852;2023-07-31T16:26:28;31.90;99.90
41547;DHT22;27271;45.412;10.852;2023-07-31T16:29:50;32.20;99.90
41547;DHT22;27271;45.412;10.852;2023-07-31T16:33:13;32.00;99.90
41547;DHT22;27271;45.412;10.852;2023-07-31T16:36:37;31.70;99.90
41547;DHT22;27271;45.412;10.852;2023-07-31T16:39:59;31.80;99.90
41547;DHT22;27271;45.412;10.852;2023-07-31T16:43:21;31.60;99.90
41547;DHT22;27271;45.412;10.852;2023-07-31T16:46:43;31.70;99.90
41547;DHT22;27271;45.412;10.852;2023-07-31T16:50:06;31.80;99.90
41547;DHT22;27271;45.412;10.852;2023-07-31T16:53:28;31.70;99.90
41547;DHT22;27271;45.412;10.852;2023-07-31T16:56:50;31.70;99.90
41547;DHT22;27271;45.412;10.852;2023-07-31T17:00:21;31.70;99.90
41547;DHT22;27271;45.412;10.852;2023-07-31T17:03:43;31.70;99.90
41547;DHT22;27271;45.412;10.852;2023-07-31T17:07:05;31.80;99.90
41547;DHT22;27271;45.412;10.852;2023-07-31T17:10:28;31.60;99.90
41547;DHT22;27271;45.412;10.852;2023-07-31T17:13:50;31.50;99.90
41547;DHT22;27271;45.412;10.852;2023-07-31T17:17:12;31.40;99.90
41547;DHT22;27271;45.412;10.852;2023-07-31T17:20:34;31.30;99.90
41547;DHT22;27271;45.412;10.852;2023-07-31T17:23:58;31.30;99.90
41547;DHT22;27271;45.412;10.852;2023-07-31T17:27:20;31.50;99.90
41547;DHT22;27271;45.412;10.852;2023-07-31T17:30:47;31.50;99.90
41547;DHT22;27271;45.412;10.852;2023-07-31T17:34:09;31.40;99.90
41547;DHT22;27271;45.412;10.852;2023-07-31T17:37:32;30.80;99.90
41547;DHT22;27271;45.412;10.852;2023-07-31T17:40:54;30.50;99.90
41547;DHT22;27271;45.412;10.852;2023-07-31T17:44:16;30.10;99.90
41547;DHT22;27271;45.412;10.852;2023-07-31T17:47:38;29.90;99.90
41547;DHT22;27271;45.412;10.852;2023-07-31T17:51:00;29.70;99.90
41547;DHT22;27271;45.412;10.852;2023-07-31T17:54:22;29.60;99.90
41547;DHT22;27271;45.412;10.852;2023-07-31T17:57:47;29.40;99.90
41547;DHT22;27271;45.412;10.852;2023-07-31T18:01:09;29.20;99.90
41547;DHT22;27271;45.412;10.852;2023-07-31T18:04:31;29.10;99.90
41547;DHT22;27271;45.412;10.852;2023-07-31T18:07:53;29.00;99.90
41547;DHT22;27271;45.412;10.852;2023-07-31T18:11:15;28.90;99.90
41547;DHT22;27271;45.412;10.852;2023-07-31T18:14:38;28.60;99.90
41547;DHT22;27271;45.412;10.852;2023-07-31T18:18:01;28.50;99.90
41547;DHT22;27271;45.412;10.852;2023-07-31T18:21:23;28.40;1.00
41547;DHT22;27271;45.412;10.852;2023-07-31T18:24:45;28.20;1.00
41547;DHT22;27271;45.412;10.852;2023-07-31T18:28:08;28.10;1.00
41547;DHT22;27271;45.412;10.852;2023-07-31T18:31:30;28.00;1.00
41547;DHT22;27271;45.412;10.852;2023-07-31T18:34:52;27.90;1.00
41547;DHT22;27271;45.412;10.852;2023-07-31T18:38:14;27.80;1.00
41547;DHT22;27271;45.412;10.852;2023-07-31T18:41:36;27.60;1.00
41547;DHT22;27271;45.412;10.852;2023-07-31T18:44:58;27.50;1.00
41547;DHT22;27271;45.412;10.852;2023-07-31T18:48:20;27.40;1.00
41547;DHT22;27271;45.412;10.852;2023-07-31T18:51:42;27.40;1.00
41547;DHT22;27271;45.412;10.852;2023-07-31T18:55:05;27.20;1.00
41547;DHT22;27271;45.412;10.852;2023-07-31T18:58:27;27.00;1.00
41547;DHT22;27271;45.412;10.852;2023-07-31T19:01:49;27.00;1.00
41547;DHT22;27271;45.412;10.852;2023-07-31T19:05:11;26.80;1.00
41547;DHT22;27271;45.412;10.852;2023-07-31T19:08:33;26.90;1.00
41547;DHT22;27271;45.412;10.852;2023-07-31T19:11:56;26.80;1.00
41547;DHT22;27271;45.412;10.852;2023-07-31T19:15:19;26.70;1.00
41547;DHT22;27271;45.412;10.852;2023-07-31T19:18:41;26.60;1.00
41547;DHT22;27271;45.412;10.852;2023-07-31T19:22:04;26.60;1.00
41547;DHT22;27271;45.412;10.852;2023-07-31T19:25:27;26.60;1.00
41547;DHT22;27271;45.412;10.852;2023-07-31T19:28:49;26.40;1.00
41547;DHT22;27271;45.412;10.852;2023-07-31T19:32:11;26.30;1.00
41547;DHT22;27271;45.412;10.852;2023-07-31T19:35:34;26.20;1.00
41547;DHT22;27271;45.412;10.852;2023-07-31T19:38:56;26.10;1.00
41547;DHT22;27271;45.412;10.852;2023-07-31T19:42:19;26.10;1.00
41547;DHT22;27271;45.412;10.852;2023-07-31T19:45:41;26.10;1.00
41547;DHT22;27271;45.412;10.852;2023-07-31T19:49:03;25.90;1.00
41547;DHT22;27271;45.412;10.852;2023-07-31T19:52:27;25.80;1.00
41547;DHT22;27271;45.412;10.852;2023-07-31T19:55:49;25.80;1.00
41547;DHT22;27271;45.412;10.852;2023-07-31T19:59:12;25.80;1.00
41547;DHT22;27271;45.412;10.852;2023-07-31T20:02:34;25.70;1.00
41547;DHT22;27271;45.412;10.852;2023-07-31T20:05:56;25.60;1.00
41547;DHT22;27271;45.412;10.852;2023-07-31T20:09:20;25.50;1.00
41547;DHT22;27271;45.412;10.852;2023-07-31T20:12:43;25.60;1.00
41547;DHT22;27271;45.412;10.852;2023-07-31T20:16:05;25.50;1.00
41547;DHT22;27271;45.412;10.852;2023-07-31T20:19:28;25.50;1.00
41547;DHT22;27271;45.412;10.852;2023-07-31T20:22:50;25.30;1.00
41547;DHT22;27271;45.412;10.852;2023-07-31T20:26:12;25.20;1.00
41547;DHT22;27271;45.412;10.852;2023-07-31T20:29:34;25.10;1.00
41547;DHT22;27271;45.412;10.852;2023-07-31T20:32:56;25.00;1.00
41547;DHT22;27271;45.412;10.852;2023-07-31T20:36:19;24.90;1.00
41547;DHT22;27271;45.412;10.852;2023-07-31T20:39:41;24.80;1.00
41547;DHT22;27271;45.412;10.852;2023-07-31T20:43:03;24.70;1.00
41547;DHT22;27271;45.412;10.852;2023-07-31T20:46:25;24.70;1.00
41547;DHT22;27271;45.412;10.852;2023-07-31T20:49:47;24.60;1.00
41547;DHT22;27271;45.412;10.852;2023-07-31T20:53:09;24.50;1.00
41547;DHT22;27271;45.412;10.852;2023-07-31T20:56:32;24.60;1.00
41547;DHT22;27271;45.412;10.852;2023-07-31T20:59:55;24.60;1.00
41547;DHT22;27271;45.412;10.852;2023-07-31T21:03:17;24.60;1.00
41547;DHT22;27271;45.412;10.852;2023-07-31T21:06:39;24.60;1.00
41547;DHT22;27271;45.412;10.852;2023-07-31T21:10:01;24.40;1.00
41547;DHT22;27271;45.412;10.852;2023-07-31T21:13:26;24.40;1.60
41547;DHT22;27271;45.412;10.852;2023-07-31T21:16:48;24.40;7.50
41547;DHT22;27271;45.412;10.852;2023-07-31T21:20:10;24.40;1.00
41547;DHT22;27271;45.412;10.852;2023-07-31T21:23:32;24.30;1.00
41547;DHT22;27271;45.412;10.852;2023-07-31T21:26:54;24.30;1.70
41547;DHT22;27271;45.412;10.852;2023-07-31T21:30:16;24.20;3.60
41547;DHT22;27271;45.412;10.852;2023-07-31T21:33:38;24.20;8.70
41547;DHT22;27271;45.412;10.852;2023-07-31T21:37:00;24.10;14.10
41547;DHT22;27271;45.412;10.852;2023-07-31T21:40:22;24.10;30.00
41547;DHT22;27271;45.412;10.852;2023-07-31T21:43:44;24.10;27.00
41547;DHT22;27271;45.412;10.852;2023-07-31T21:47:06;24.00;32.30
41547;DHT22;27271;45.412;10.852;2023-07-31T21:50:29;24.00;29.60
41547;DHT22;27271;45.412;10.852;2023-07-31T21:53:51;24.00;47.00
41547;DHT22;27271;45.412;10.852;2023-07-31T21:57:13;24.00;23.10
41547;DHT22;27271;45.412;10.852;2023-07-31T22:00:35;24.00;26.30
41547;DHT22;27271;45.412;10.852;2023-07-31T22:03:57;24.00;30.00
41547;DHT22;27271;45.412;10.852;2023-07-31T22:07:19;23.90;34.10
41547;DHT22;27271;45.412;10.852;2023-07-31T22:10:42;23.90;38.00
41547;DHT22;27271;45.412;10.852;2023-07-31T22:14:04;23.80;48.80
41547;DHT22;27271;45.412;10.852;2023-07-31T22:17:26;23.80;43.00
41547;DHT22;27271;45.412;10.852;2023-07-31T22:20:51;23.80;44.20
41547;DHT22;27271;45.412;10.852;2023-07-31T22:24:14;23.70;55.60
41547;DHT22;27271;45.412;10.852;2023-07-31T22:27:36;23.70;54.00
